createdAt,value
2022-10-17T00:00:40.673Z,5.22
2022-10-17T00:05:46.515Z,5.12
2022-10-17T00:11:00.837Z,4.98
2022-10-17T00:16:03.413Z,5.05
2022-10-17T00:21:06.529Z,5.11
2022-10-17T00:26:10.316Z,5.14
2022-10-17T00:31:13.118Z,4.99
2022-10-17T00:36:19.072Z,5.16
2022-10-17T00:41:24.877Z,5.23
2022-10-17T00:46:30.455Z,5.25
2022-10-17T00:51:45.386Z,5.23
2022-10-17T00:56:48.806Z,5.12
2022-10-17T01:02:01.385Z,5.15
2022-10-17T01:07:03.970Z,5.02
2022-10-17T01:12:20.144Z,5.02
2022-10-17T01:17:31.853Z,4.96
2022-10-17T01:22:57.357Z,4.93
2022-10-17T01:28:30.556Z,4.83
2022-10-17T01:33:38.272Z,4.94
2022-10-17T01:38:50.646Z,4.97
2022-10-17T01:44:03.747Z,5.07
2022-10-17T01:49:10.340Z,4.96
2022-10-17T01:54:24.721Z,5.05
2022-10-17T01:59:41.338Z,5.01
2022-10-17T02:04:45.029Z,4.96
2022-10-17T02:09:47.666Z,4.96
2022-10-17T02:15:08.475Z,4.96
2022-10-17T02:20:31.072Z,4.90
2022-10-17T02:25:46.507Z,4.91
2022-10-17T02:30:58.173Z,4.81
2022-10-17T02:36:06.306Z,4.80
2022-10-17T02:41:12.776Z,4.79
2022-10-17T02:46:21.275Z,4.80
2022-10-17T02:51:56.465Z,4.85
2022-10-17T02:57:18.733Z,4.91
2022-10-17T03:02:21.596Z,4.85
2022-10-17T03:07:24.225Z,4.83
2022-10-17T03:12:27.142Z,4.75
2022-10-17T03:17:29.984Z,4.83
2022-10-17T03:22:32.840Z,4.95
2022-10-17T03:27:38.025Z,4.93
2022-10-17T03:32:40.809Z,4.82
2022-10-17T03:37:44.183Z,4.84
2022-10-17T03:42:46.777Z,4.87
2022-10-17T03:47:49.590Z,4.84
2022-10-17T03:52:52.286Z,4.91
2022-10-17T03:57:55.157Z,4.88
2022-10-17T04:02:59.140Z,4.93
2022-10-17T04:08:04.738Z,4.95
2022-10-17T04:13:26.392Z,4.82
2022-10-17T04:18:29.269Z,4.85
2022-10-17T04:23:32.933Z,4.82
2022-10-17T04:28:44.279Z,5.03
2022-10-17T04:33:48.102Z,5.06
2022-10-17T04:38:50.901Z,5.16
2022-10-17T04:43:55.106Z,5.05
2022-10-17T04:48:58.472Z,5.39
2022-10-17T04:54:01.273Z,5.45
2022-10-17T04:59:04.646Z,5.30
2022-10-17T05:04:07.991Z,5.48
2022-10-17T05:09:11.215Z,5.44
2022-10-17T05:14:13.835Z,5.57
2022-10-17T05:19:17.319Z,5.67
2022-10-17T05:24:23.288Z,5.66
2022-10-17T05:29:26.584Z,5.72
2022-10-17T05:34:38.357Z,5.85
2022-10-17T05:39:41.317Z,6.07
2022-10-17T05:44:45.562Z,6.24
2022-10-17T05:49:52.503Z,6.37
2022-10-17T05:55:06.505Z,6.36
2022-10-17T06:00:10.006Z,6.31
2022-10-17T06:05:21.364Z,6.19
2022-10-17T06:10:24.240Z,6.14
2022-10-17T06:15:26.944Z,6.26
2022-10-17T06:20:45.253Z,6.37
2022-10-17T06:25:51.498Z,6.38
2022-10-17T06:30:54.289Z,6.25
2022-10-17T06:35:57.766Z,6.37
2022-10-17T06:41:09.122Z,6.62
2022-10-17T06:46:12.596Z,7.02
2022-10-17T06:51:27.668Z,7.17
2022-10-17T06:56:32.676Z,7.38
2022-10-17T07:01:55.917Z,7.34
2022-10-17T07:07:03.203Z,7.38
2022-10-17T07:12:08.643Z,7.40
2022-10-17T07:17:13.457Z,7.39
2022-10-17T07:22:17.705Z,7.04
2022-10-17T07:27:23.335Z,6.85
2022-10-17T07:32:26.861Z,7.34
2022-10-17T07:37:30.001Z,7.07
2022-10-17T07:42:42.399Z,7.00
2022-10-17T07:47:46.341Z,7.08
2022-10-17T07:52:51.491Z,6.91
2022-10-17T07:57:54.113Z,6.78
2022-10-17T08:02:56.745Z,6.85
2022-10-17T08:08:00.062Z,6.70
2022-10-17T08:13:03.265Z,6.63
2022-10-17T08:18:05.891Z,6.64
2022-10-17T08:23:08.831Z,6.82
2022-10-17T08:28:11.376Z,7.01
2022-10-17T08:33:13.955Z,7.02
2022-10-17T08:38:20.018Z,7.29
2022-10-17T08:44:03.055Z,7.27
2022-10-17T08:49:20.922Z,6.88
2022-10-17T08:54:39.052Z,6.60
2022-10-17T08:59:43.836Z,6.38
2022-10-17T09:05:08.134Z,6.50
2022-10-17T09:10:27.560Z,6.52
2022-10-17T09:15:49.876Z,6.46
2022-10-17T09:20:58.419Z,6.19
2022-10-17T09:26:01.789Z,6.11
2022-10-17T09:31:22.688Z,6.34
2022-10-17T09:36:34.785Z,6.46
2022-10-17T09:41:45.357Z,6.52
2022-10-17T09:47:04.252Z,6.51
2022-10-17T09:52:19.963Z,6.52
2022-10-17T09:57:22.755Z,6.21
2022-10-17T10:02:27.392Z,6.66
2022-10-17T10:07:35.720Z,7.02
2022-10-17T10:12:39.633Z,6.96
2022-10-17T10:17:42.827Z,6.79
2022-10-17T10:22:46.283Z,6.92
2022-10-17T10:27:48.990Z,7.04
2022-10-17T10:32:52.061Z,7.13
2022-10-17T10:37:57.729Z,6.68
2022-10-17T10:43:05.345Z,6.63
2022-10-17T10:48:30.910Z,6.70
2022-10-17T10:53:57.072Z,6.66
2022-10-17T10:59:19.384Z,6.90
2022-10-17T11:04:40.341Z,7.01
2022-10-17T11:10:00.350Z,7.14
2022-10-17T11:15:32.839Z,7.17
2022-10-17T11:20:53.605Z,7.19
2022-10-17T11:26:02.842Z,7.04
2022-10-17T11:31:13.507Z,7.16
2022-10-17T11:36:19.903Z,7.02
2022-10-17T11:41:55.443Z,7.11
2022-10-17T11:47:03.839Z,7.12
2022-10-17T11:57:56.838Z,7.29
2022-10-17T12:03:11.010Z,7.11
2022-10-17T12:08:50.541Z,6.94
2022-10-17T12:13:55.247Z,7.09
2022-10-17T12:19:00.614Z,7.14
2022-10-17T12:24:03.264Z,7.22
2022-10-17T12:29:32.574Z,7.15
2022-10-17T12:34:35.270Z,6.95
2022-10-17T12:39:37.869Z,6.90
2022-10-17T12:44:40.527Z,6.85
2022-10-17T12:49:45.636Z,6.93
2022-10-17T12:55:24.713Z,7.05
2022-10-17T13:00:59.527Z,7.01
2022-10-17T13:06:13.777Z,7.10
2022-10-17T13:11:16.466Z,7.15
2022-10-17T13:16:40.278Z,7.29
2022-10-17T13:22:01.084Z,7.35
2022-10-17T13:27:28.765Z,7.42
2022-10-17T13:32:40.814Z,7.46
2022-10-17T13:37:50.253Z,7.37
2022-10-17T13:42:57.896Z,7.31
2022-10-17T13:48:04.523Z,7.23
2022-10-17T13:53:13.231Z,7.19
2022-10-17T13:58:17.575Z,7.12
2022-10-17T14:03:22.291Z,7.41
2022-10-17T14:08:25.272Z,7.55
2022-10-17T14:13:33.829Z,7.30
2022-10-17T14:18:37.657Z,7.00
2022-10-17T14:23:43.594Z,6.85
2022-10-17T14:29:04.384Z,6.74
2022-10-17T14:34:07.096Z,6.71
2022-10-17T14:39:21.031Z,6.70
2022-10-17T14:44:29.076Z,6.76
2022-10-17T14:49:33.333Z,6.64
2022-10-17T14:54:37.605Z,6.56
2022-10-17T14:59:53.801Z,6.53
2022-10-17T15:04:57.143Z,6.42
2022-10-17T15:10:00.057Z,6.52
2022-10-17T15:15:02.740Z,6.53
2022-10-17T15:20:14.327Z,6.56
2022-10-17T15:25:16.944Z,6.65
2022-10-17T15:30:32.468Z,6.67
2022-10-17T15:35:37.102Z,6.80
2022-10-17T15:40:41.650Z,6.89
2022-10-17T15:45:44.248Z,6.95
2022-10-17T15:50:46.920Z,7.15
2022-10-17T15:55:51.065Z,7.06
2022-10-17T16:00:53.915Z,7.20
2022-10-17T16:05:57.146Z,7.18
2022-10-17T16:10:59.728Z,7.30
2022-10-17T16:16:02.273Z,7.46
2022-10-17T16:21:05.045Z,7.57
2022-10-17T16:26:07.817Z,7.53
2022-10-17T16:31:31.335Z,7.55
2022-10-17T16:36:34.477Z,7.52
2022-10-17T16:41:39.421Z,7.53
2022-10-17T16:46:42.062Z,7.58
2022-10-17T16:51:44.754Z,7.64
2022-10-17T16:56:47.478Z,7.69
2022-10-17T17:01:50.541Z,7.80
2022-10-17T17:06:53.205Z,7.68
2022-10-17T17:11:55.767Z,7.76
2022-10-17T17:16:58.375Z,7.84
2022-10-17T17:22:01.057Z,7.92
2022-10-17T17:27:03.641Z,7.94
2022-10-17T17:32:06.331Z,8.02
2022-10-17T17:37:08.932Z,7.95
2022-10-17T17:42:14.960Z,7.76
2022-10-17T17:47:20.738Z,7.66
2022-10-17T17:52:23.307Z,7.74
2022-10-17T17:57:25.945Z,7.61
2022-10-17T18:02:28.780Z,7.74
2022-10-17T18:07:31.640Z,7.72
2022-10-17T18:12:37.361Z,7.87
2022-10-17T18:17:40.191Z,7.75
2022-10-17T18:22:42.848Z,7.89
2022-10-17T18:27:48.067Z,7.69
2022-10-17T18:32:51.101Z,7.88
2022-10-17T18:37:56.565Z,7.86
2022-10-17T18:42:59.227Z,7.94
2022-10-17T18:48:01.919Z,7.91
2022-10-17T18:53:05.130Z,7.83
2022-10-17T18:58:07.730Z,7.71
2022-10-17T19:03:10.580Z,7.61
2022-10-17T19:08:15.104Z,7.51
2022-10-17T19:13:21.479Z,7.56
2022-10-17T19:18:24.461Z,7.43
2022-10-17T19:23:27.051Z,7.18
2022-10-17T19:28:29.806Z,7.11
2022-10-17T19:33:32.943Z,7.06
2022-10-17T19:38:36.557Z,7.01
2022-10-17T19:43:40.913Z,6.89
2022-10-17T19:48:44.512Z,6.85
2022-10-17T19:53:47.669Z,7.01
2022-10-17T19:58:51.185Z,6.87
2022-10-17T20:03:54.527Z,6.92
2022-10-17T20:08:57.304Z,7.05
2022-10-17T20:14:01.900Z,6.96
2022-10-17T20:19:08.776Z,7.07
2022-10-17T20:24:14.847Z,7.11
2022-10-17T20:29:20.188Z,7.04
2022-10-17T20:34:22.996Z,7.04
2022-10-17T20:39:25.676Z,7.04
2022-10-17T20:44:28.259Z,7.11
2022-10-17T20:49:31.896Z,7.08
2022-10-17T20:54:34.539Z,7.20
2022-10-17T20:59:37.736Z,7.14
2022-10-17T21:04:46.327Z,7.18
2022-10-17T21:09:49.632Z,7.21
2022-10-17T21:14:52.193Z,7.22
2022-10-17T21:19:54.830Z,7.27
2022-10-17T21:24:57.446Z,7.06
2022-10-17T21:30:00.057Z,7.12
2022-10-17T21:35:02.718Z,7.13
2022-10-17T21:40:06.174Z,7.14
2022-10-17T21:45:15.358Z,7.09
2022-10-17T21:50:22.705Z,7.16
2022-10-17T21:55:25.302Z,7.22
2022-10-17T22:00:27.907Z,6.95
2022-10-17T22:05:31.543Z,7.15
2022-10-17T22:10:37.184Z,7.08
2022-10-17T22:15:39.783Z,7.04
2022-10-17T22:20:42.323Z,7.02
2022-10-17T22:25:53.588Z,7.07
2022-10-17T22:30:56.210Z,6.88
2022-10-17T22:35:59.205Z,7.04
2022-10-17T22:41:02.300Z,7.04
2022-10-17T22:46:06.953Z,7.09
2022-10-17T22:51:10.009Z,7.22
2022-10-17T22:56:16.982Z,7.18
2022-10-17T23:01:22.299Z,7.17
2022-10-17T23:06:24.974Z,7.18
2022-10-17T23:11:27.600Z,7.13
2022-10-17T23:16:30.311Z,7.30
2022-10-17T23:21:32.858Z,7.00
2022-10-17T23:26:35.413Z,7.15
2022-10-17T23:31:37.996Z,7.13
2022-10-17T23:36:40.571Z,7.06
2022-10-17T23:41:43.155Z,6.96
2022-10-17T23:46:45.791Z,6.97
2022-10-17T23:51:48.404Z,6.95
2022-10-17T23:56:50.965Z,6.89
